Time;durP1;ratioP1;P1;durP2;ratioP2;P2;SDS_P1;SDS_P2;PMS_P1;PMS_P2;Temp;Humidity;BMP_temperature;BMP_pressure;BME280_temperature;BME280_humidity;BME280_pressure;Samples;Min_cycle;Max_cycle;Signal;HPM_P1;HPM_P2
2022/05/12 00:04:00;;;;;;;26.70;18.88;;;;;;;;;;10506368;28;20777;-80
2022/05/12 00:09:04;;;;;;;28.90;18.63;;;;;;;;;;10508426;28;20889;-80
2022/05/12 00:14:06;;;;;;;23.50;18.40;;;;;;;;;;10508312;28;20504;-81
2022/05/12 00:19:08;;;;;;;25.47;19.10;;;;;;;;;;10508820;28;20402;-80
2022/05/12 00:24:12;;;;;;;26.02;20.40;;;;;;;;;;10507930;28;20428;-81
2022/05/12 00:29:14;;;;;;;30.10;20.43;;;;;;;;;;10507836;28;20458;-81
2022/05/12 00:34:18;;;;;;;26.13;20.33;;;;;;;;;;10507530;28;21068;-82
2022/05/12 00:39:21;;;;;;;25.10;19.27;;;;;;;;;;10507433;28;20475;-81
2022/05/12 00:44:23;;;;;;;22.30;19.00;;;;;;;;;;10507473;28;20511;-81
2022/05/12 00:49:28;;;;;;;28.55;19.13;;;;;;;;;;10504801;28;20416;-81
2022/05/12 00:54:37;;;;;;;23.83;18.97;;;;;;;;;;10508058;28;20396;-81
2022/05/12 00:59:39;;;;;;;23.10;18.33;;;;;;;;;;10508528;28;20428;-81
2022/05/12 01:04:42;;;;;;;23.88;18.23;;;;;;;;;;10505781;28;20890;-81
2022/05/12 01:09:45;;;;;;;23.15;18.65;;;;;;;;;;10507775;28;20416;-81
2022/05/12 01:14:47;;;;;;;23.60;19.07;;;;;;;;;;10504943;28;20398;-81
2022/05/12 01:19:51;;;;;;;26.37;20.10;;;;;;;;;;10505022;28;20949;-81
2022/05/12 01:24:54;;;;;;;26.23;19.95;;;;;;;;;;10506777;28;20417;-82
2022/05/12 01:29:57;;;;;;;24.85;20.08;;;;;;;;;;10505194;28;20916;-82
2022/05/12 01:34:59;;;;;;;30.35;20.58;;;;;;;;;;10505635;28;20407;-81
2022/05/12 01:40:02;;;;;;;24.17;20.17;;;;;;;;;;10501915;28;20412;-81
2022/05/12 01:45:06;;;;;;;23.20;19.70;;;;;;;;;;10505045;28;20421;-81
2022/05/12 01:50:10;;;;;;;26.47;20.00;;;;;;;;;;10504809;28;20410;-82
2022/05/12 01:55:14;;;;;;;31.33;20.55;;;;;;;;;;10504107;28;20747;-81
2022/05/12 02:00:19;;;;;;;25.17;21.07;;;;;;;;;;10503409;28;20478;-81
2022/05/12 02:05:22;;;;;;;24.08;20.83;;;;;;;;;;10525598;28;20422;-82
2022/05/12 02:10:27;;;;;;;26.92;20.42;;;;;;;;;;10525926;28;20408;-82
2022/05/12 02:15:29;;;;;;;24.80;19.13;;;;;;;;;;10526094;28;20400;-82
2022/05/12 02:20:31;;;;;;;24.90;19.52;;;;;;;;;;10517291;28;20396;-81
2022/05/12 02:25:34;;;;;;;24.52;18.92;;;;;;;;;;10526109;28;20503;-82
2022/05/12 02:30:36;;;;;;;27.20;19.43;;;;;;;;;;10525484;28;20422;-82
2022/05/12 02:35:39;;;;;;;23.00;19.05;;;;;;;;;;10525645;28;20396;-81
2022/05/12 02:40:42;;;;;;;24.50;18.90;;;;;;;;;;10524929;28;20512;-81
2022/05/12 02:45:44;;;;;;;24.77;18.85;;;;;;;;;;10524862;28;20934;-81
2022/05/12 02:50:46;;;;;;;25.92;18.27;;;;;;;;;;10524769;28;20409;-82
2022/05/12 02:55:49;;;;;;;23.23;19.20;;;;;;;;;;10521987;28;20400;-81
2022/05/12 03:00:52;;;;;;;24.67;19.30;;;;;;;;;;10481072;28;20492;-81
2022/05/12 03:05:55;;;;;;;26.65;19.48;;;;;;;;;;10482411;28;20646;-81
2022/05/12 03:10:58;;;;;;;25.67;19.50;;;;;;;;;;10482429;28;20401;-81
2022/05/12 03:16:00;;;;;;;25.15;19.42;;;;;;;;;;10482988;28;20489;-82
2022/05/12 03:21:02;;;;;;;25.23;19.37;;;;;;;;;;10482117;28;20750;-81
2022/05/12 03:26:05;;;;;;;25.40;19.35;;;;;;;;;;10482457;28;20816;-81
2022/05/12 03:31:08;;;;;;;26.38;19.90;;;;;;;;;;10482697;28;20561;-80
2022/05/12 03:36:10;;;;;;;26.52;19.60;;;;;;;;;;10487182;28;20402;-81
2022/05/12 03:41:13;;;;;;;25.88;20.23;;;;;;;;;;10490387;28;21294;-81
2022/05/12 03:46:15;;;;;;;29.10;20.33;;;;;;;;;;10490098;28;20413;-81
2022/05/12 03:51:17;;;;;;;25.55;19.70;;;;;;;;;;10490328;28;20413;-81
2022/05/12 03:56:21;;;;;;;25.43;19.50;;;;;;;;;;10489615;28;20884;-82
2022/05/12 04:01:23;;;;;;;26.02;19.92;;;;;;;;;;10489213;28;20397;-81
2022/05/12 04:06:24;;;;;;;24.60;19.45;;;;;;;;;;10503754;28;20507;-80
2022/05/12 04:11:28;;;;;;;28.63;20.70;;;;;;;;;;10508247;28;20887;-81
2022/05/12 04:16:31;;;;;;;28.35;19.52;;;;;;;;;;10509041;28;20581;-81
2022/05/12 04:21:34;;;;;;;26.88;20.02;;;;;;;;;;10507652;28;20766;-81
2022/05/12 04:26:39;;;;;;;24.20;19.60;;;;;;;;;;10507954;28;20527;-80
2022/05/12 04:31:41;;;;;;;24.52;19.65;;;;;;;;;;10508667;28;20396;-80
2022/05/12 04:36:43;;;;;;;25.80;19.40;;;;;;;;;;10508054;28;20487;-81
2022/05/12 04:41:47;;;;;;;25.38;19.63;;;;;;;;;;10507083;28;20392;-80
2022/05/12 04:46:49;;;;;;;29.17;20.45;;;;;;;;;;10506690;28;20420;-81
2022/05/12 04:51:51;;;;;;;29.90;19.90;;;;;;;;;;10511343;28;20418;-80
2022/05/12 04:56:54;;;;;;;24.73;18.87;;;;;;;;;;10509616;28;20477;-80
2022/05/12 05:01:55;;;;;;;24.45;19.05;;;;;;;;;;10510193;28;20477;-82
2022/05/12 05:06:57;;;;;;;23.90;19.30;;;;;;;;;;10509333;28;20496;-81
2022/05/12 05:12:01;;;;;;;25.70;19.67;;;;;;;;;;10504861;28;20404;-81
2022/05/12 05:17:04;;;;;;;27.35;19.90;;;;;;;;;;10518769;28;20412;-82
2022/05/12 05:22:06;;;;;;;25.20;19.50;;;;;;;;;;10519464;28;20406;-82
2022/05/12 05:27:09;;;;;;;25.52;19.33;;;;;;;;;;10512051;28;21329;-81
2022/05/12 05:32:11;;;;;;;24.58;18.33;;;;;;;;;;10508464;28;20404;-83
2022/05/12 05:37:13;;;;;;;24.45;18.77;;;;;;;;;;10520774;28;20404;-82
2022/05/12 05:42:19;;;;;;;25.45;19.23;;;;;;;;;;10518455;28;20469;-82
2022/05/12 05:47:21;;;;;;;23.27;18.95;;;;;;;;;;10509145;28;20946;-83
2022/05/12 05:57:44;;;;;;;22.88;17.83;;;;;;;;;;10504577;28;20380;-83
2022/05/12 06:02:46;;;;;;;24.90;17.83;;;;;;;;;;10504109;28;20795;-83
2022/05/12 06:07:48;;;;;;;28.77;17.92;;;;;;;;;;10503089;28;20410;-83
2022/05/12 06:12:51;;;;;;;26.80;18.23;;;;;;;;;;10505518;28;20396;-83
2022/05/12 06:17:53;;;;;;;23.20;17.92;;;;;;;;;;10501149;28;20410;-83
2022/05/12 06:22:55;;;;;;;27.70;19.03;;;;;;;;;;10502180;28;20412;-82
2022/05/12 06:27:58;;;;;;;22.58;17.45;;;;;;;;;;10503755;28;20404;-82
2022/05/12 06:33:01;;;;;;;22.58;17.20;;;;;;;;;;10504271;28;20396;-83
2022/05/12 06:38:03;;;;;;;21.58;16.50;;;;;;;;;;10503118;28;20489;-82
2022/05/12 06:43:07;;;;;;;24.80;17.30;;;;;;;;;;10502522;28;20412;-82
2022/05/12 06:48:09;;;;;;;23.83;16.70;;;;;;;;;;10502366;28;20409;-74
2022/05/12 06:53:11;;;;;;;24.23;15.70;;;;;;;;;;10502536;28;20397;-73
2022/05/12 06:58:17;;;;;;;20.88;14.85;;;;;;;;;;10502908;28;20406;-73
2022/05/12 07:03:19;;;;;;;20.75;15.00;;;;;;;;;;10502655;28;20421;-74
2022/05/12 07:08:21;;;;;;;20.13;14.93;;;;;;;;;;10501051;28;20446;-73
2022/05/12 07:13:24;;;;;;;21.13;14.20;;;;;;;;;;10502485;28;20410;-73
2022/05/12 07:18:26;;;;;;;16.80;13.73;;;;;;;;;;10502376;28;20403;-73
2022/05/12 07:28:49;;;;;;;21.38;13.80;;;;;;;;;;10491882;28;20413;-78
2022/05/12 07:33:51;;;;;;;19.90;13.27;;;;;;;;;;10502143;28;20400;-78
2022/05/12 07:38:53;;;;;;;16.38;13.45;;;;;;;;;;10501984;28;20483;-77
2022/05/12 07:43:57;;;;;;;15.82;12.43;;;;;;;;;;10497513;28;20422;-78
2022/05/12 07:48:59;;;;;;;21.00;12.80;;;;;;;;;;10501992;28;20402;-86
2022/05/12 07:54:01;;;;;;;18.80;12.20;;;;;;;;;;10500991;28;20403;-86
2022/05/12 07:59:05;;;;;;;17.17;11.88;;;;;;;;;;10500439;28;20477;-86
2022/05/12 08:04:07;;;;;;;17.27;12.13;;;;;;;;;;10502334;28;20414;-87
2022/05/12 08:09:09;;;;;;;16.95;11.27;;;;;;;;;;10502876;28;20398;-87
2022/05/12 08:14:13;;;;;;;17.60;11.38;;;;;;;;;;10502679;28;20402;-86
2022/05/12 08:19:15;;;;;;;15.83;11.57;;;;;;;;;;10504802;28;20558;-86
2022/05/12 08:24:16;;;;;;;14.33;11.03;;;;;;;;;;10508216;28;20428;-87
2022/05/12 08:29:20;;;;;;;15.57;10.80;;;;;;;;;;10509983;28;20489;-86
2022/05/12 08:34:22;;;;;;;18.05;11.07;;;;;;;;;;10506988;28;20397;-87
2022/05/12 08:39:24;;;;;;;18.00;10.45;;;;;;;;;;10508521;28;20415;-87
2022/05/12 08:44:29;;;;;;;13.32;9.85;;;;;;;;;;10506214;28;20459;-87
2022/05/12 08:49:36;;;;;;;16.52;10.45;;;;;;;;;;10509610;28;20406;-86
2022/05/12 08:54:43;;;;;;;17.60;12.02;;;;;;;;;;10508835;28;20398;-87
2022/05/12 08:59:47;;;;;;;15.77;11.13;;;;;;;;;;10508190;28;20464;-85
2022/05/12 09:05:09;;;;;;;17.92;13.20;;;;;;;;;;10501302;28;20424;-86
2022/05/12 09:10:18;;;;;;;17.67;12.03;;;;;;;;;;10505569;28;21978;-85
2022/05/12 09:15:24;;;;;;;20.88;13.38;;;;;;;;;;10506284;28;20854;-85
2022/05/12 09:20:30;;;;;;;18.63;12.70;;;;;;;;;;10502909;28;20483;-87
2022/05/12 09:25:36;;;;;;;20.38;12.85;;;;;;;;;;10503777;28;20869;-87
2022/05/12 09:30:39;;;;;;;18.23;11.55;;;;;;;;;;10503062;28;20402;-87
2022/05/12 09:35:53;;;;;;;17.65;11.30;;;;;;;;;;10489756;28;20422;-87
2022/05/12 09:40:56;;;;;;;16.02;11.57;;;;;;;;;;10503110;28;20488;-87
2022/05/12 09:46:21;;;;;;;13.52;11.70;;;;;;;;;;10504985;28;21144;-86
2022/05/12 09:51:30;;;;;;;17.00;12.20;;;;;;;;;;10505913;28;20409;-87
2022/05/12 09:56:34;;;;;;;20.48;12.70;;;;;;;;;;10506329;28;20427;-87
2022/05/12 10:01:52;;;;;;;18.67;11.80;;;;;;;;;;10505877;28;22730;-87
2022/05/12 10:12:24;;;;;;;16.70;10.70;;;;;;;;;;10496213;28;20382;-86
2022/05/12 10:17:33;;;;;;;14.98;10.82;;;;;;;;;;10495890;28;20393;-87
2022/05/12 10:22:42;;;;;;;17.85;11.45;;;;;;;;;;10508413;28;20399;-86
2022/05/12 10:27:50;;;;;;;16.20;11.75;;;;;;;;;;10507498;28;20416;-87
2022/05/12 10:33:10;;;;;;;15.00;11.80;;;;;;;;;;10502021;28;20408;-87
2022/05/12 10:38:23;;;;;;;12.43;10.70;;;;;;;;;;10505934;28;20406;-86
2022/05/12 10:43:46;;;;;;;17.65;10.50;;;;;;;;;;10503399;28;20423;-87
2022/05/12 10:48:55;;;;;;;12.27;10.03;;;;;;;;;;10506782;28;20955;-87
2022/05/12 10:54:12;;;;;;;15.75;11.18;;;;;;;;;;10503893;28;20479;-87
2022/05/12 10:59:30;;;;;;;15.35;9.70;;;;;;;;;;10506139;28;20498;-87
2022/05/12 11:04:38;;;;;;;14.43;10.02;;;;;;;;;;10504056;28;20421;-88
2022/05/12 11:09:46;;;;;;;15.15;9.75;;;;;;;;;;10500734;28;20882;-84
2022/05/12 11:14:55;;;;;;;13.35;11.15;;;;;;;;;;10499586;28;20487;-85
2022/05/12 11:20:04;;;;;;;12.37;10.00;;;;;;;;;;10502028;28;20491;-85
2022/05/12 11:25:14;;;;;;;15.90;11.50;;;;;;;;;;10503695;28;20430;-85
2022/05/12 11:30:32;;;;;;;14.90;10.47;;;;;;;;;;10504824;28;20392;-85
2022/05/12 11:35:39;;;;;;;13.85;10.60;;;;;;;;;;10503104;28;20402;-85
2022/05/12 11:40:53;;;;;;;12.73;10.00;;;;;;;;;;10495678;28;20428;-85
2022/05/12 11:46:17;;;;;;;14.45;10.68;;;;;;;;;;10480026;28;20521;-76
2022/05/12 11:51:29;;;;;;;16.13;11.93;;;;;;;;;;10492710;28;21185;-86
2022/05/12 11:56:45;;;;;;;11.03;9.70;;;;;;;;;;10497138;28;20431;-86
2022/05/12 12:01:54;;;;;;;12.82;10.18;;;;;;;;;;10498097;28;20457;-86
2022/05/12 12:06:57;;;;;;;13.43;9.95;;;;;;;;;;10515789;28;20477;-86
2022/05/12 12:11:59;;;;;;;12.43;9.77;;;;;;;;;;10505087;28;20427;-84
2022/05/12 12:17:05;;;;;;;13.90;9.73;;;;;;;;;;10502657;28;20401;-85
2022/05/12 12:22:41;;;;;;;12.83;9.77;;;;;;;;;;10504394;28;20814;-85
2022/05/12 12:28:27;;;;;;;14.55;10.70;;;;;;;;;;10494386;28;20459;-85
2022/05/12 12:34:19;;;;;;;10.95;9.75;;;;;;;;;;10494722;28;20445;-85
2022/05/12 12:39:36;;;;;;;11.80;9.40;;;;;;;;;;10493249;28;20417;-84
2022/05/12 12:44:57;;;;;;;14.52;9.18;;;;;;;;;;10489964;28;20430;-84
2022/05/12 12:50:40;;;;;;;;;;;;;;;;;;;;;
2022/05/12 13:01:41;;;;;;;12.30;8.98;;;;;;;;;;10501276;28;20393;-84
2022/05/12 13:07:43;;;;;;;14.27;9.57;;;;;;;;;;10515040;28;20421;-84
2022/05/12 13:12:53;;;;;;;11.73;9.23;;;;;;;;;;10508545;28;20421;-84
2022/05/12 13:17:59;;;;;;;11.87;8.60;;;;;;;;;;10507226;28;20872;-84
2022/05/12 13:23:06;;;;;;;11.03;8.77;;;;;;;;;;10525807;28;20410;-84
2022/05/12 13:28:16;;;;;;;9.73;8.23;;;;;;;;;;10529427;28;20838;-85
2022/05/12 13:33:24;;;;;;;12.85;8.90;;;;;;;;;;10543057;28;20415;-84
2022/05/12 13:38:31;;;;;;;11.37;8.40;;;;;;;;;;10537200;28;20395;-86
2022/05/12 13:43:44;;;;;;;12.32;8.70;;;;;;;;;;10521713;28;21297;-85
2022/05/12 13:48:59;;;;;;;12.27;9.70;;;;;;;;;;10525235;28;20428;-80
2022/05/12 13:54:08;;;;;;;10.30;8.82;;;;;;;;;;10535817;28;20758;-86
2022/05/12 13:59:26;;;;;;;10.60;9.15;;;;;;;;;;10527688;28;20433;-85
2022/05/12 14:04:30;;;;;;;12.43;9.00;;;;;;;;;;10546843;28;20414;-86
2022/05/12 14:09:35;;;;;;;10.93;8.15;;;;;;;;;;10537883;28;20768;-85
2022/05/12 14:20:09;;;;;;;10.38;8.10;;;;;;;;;;10520810;28;20381;-85
2022/05/12 14:25:13;;;;;;;9.75;7.80;;;;;;;;;;10531747;28;21131;-86
2022/05/12 14:30:18;;;;;;;12.27;8.27;;;;;;;;;;10528700;28;20388;-87
2022/05/12 14:35:23;;;;;;;10.32;8.15;;;;;;;;;;10534550;28;20401;-86
2022/05/12 14:40:27;;;;;;;13.60;7.73;;;;;;;;;;10516035;28;20779;-87
2022/05/12 14:45:30;;;;;;;11.10;8.00;;;;;;;;;;10512028;28;20422;-86
2022/05/12 14:50:32;;;;;;;9.40;7.50;;;;;;;;;;10511214;28;20751;-86
2022/05/12 14:55:35;;;;;;;10.40;7.95;;;;;;;;;;10501202;28;20493;-85
2022/05/12 15:00:40;;;;;;;10.85;7.80;;;;;;;;;;10516457;28;20410;-85
2022/05/12 15:05:42;;;;;;;9.50;8.30;;;;;;;;;;10489529;28;20424;-85
2022/05/12 15:10:45;;;;;;;9.52;8.38;;;;;;;;;;10490965;28;20430;-85
2022/05/12 15:15:47;;;;;;;10.07;8.45;;;;;;;;;;10495156;28;20819;-85
2022/05/12 15:20:49;;;;;;;10.47;7.57;;;;;;;;;;10504746;28;20440;-84
2022/05/12 15:25:52;;;;;;;10.53;8.00;;;;;;;;;;10506230;28;20724;-86
2022/05/12 15:30:55;;;;;;;11.10;7.77;;;;;;;;;;10503875;28;20403;-85
2022/05/12 15:35:59;;;;;;;10.48;8.30;;;;;;;;;;10515568;28;20480;-85
2022/05/12 15:41:02;;;;;;;8.05;7.25;;;;;;;;;;10513033;28;20473;-84
2022/05/12 15:46:06;;;;;;;11.90;7.50;;;;;;;;;;10512787;28;20452;-84
2022/05/12 15:51:08;;;;;;;11.83;7.70;;;;;;;;;;10507629;28;20410;-84
2022/05/12 15:56:11;;;;;;;7.88;6.60;;;;;;;;;;10533869;28;20453;-85
2022/05/12 16:01:16;;;;;;;10.60;5.75;;;;;;;;;;10518578;28;20428;-85
2022/05/12 16:06:18;;;;;;;6.97;5.87;;;;;;;;;;10506979;28;20870;-83
2022/05/12 16:11:35;;;;;;;9.07;5.70;;;;;;;;;;10511891;28;20955;-84
2022/05/12 16:16:37;;;;;;;8.82;6.00;;;;;;;;;;10517118;28;20402;-85
2022/05/12 16:21:40;;;;;;;7.20;6.05;;;;;;;;;;10520831;28;20463;-85
2022/05/12 16:26:48;;;;;;;8.20;7.40;;;;;;;;;;10512390;28;20803;-86
2022/05/12 16:31:51;;;;;;;11.07;7.90;;;;;;;;;;10509607;28;20396;-86
2022/05/12 16:36:53;;;;;;;9.68;7.85;;;;;;;;;;10508631;28;20420;-84
2022/05/12 16:41:56;;;;;;;12.87;9.03;;;;;;;;;;10518617;28;20503;-84
2022/05/12 16:46:59;;;;;;;9.75;8.60;;;;;;;;;;10511375;28;20913;-84
2022/05/12 16:52:02;;;;;;;11.98;9.35;;;;;;;;;;10512688;28;20408;-86
2022/05/12 16:57:09;;;;;;;11.37;9.33;;;;;;;;;;10520447;28;20488;-85
2022/05/12 17:02:11;;;;;;;12.93;10.50;;;;;;;;;;10512923;28;20494;-86
2022/05/12 17:07:15;;;;;;;13.68;9.43;;;;;;;;;;10514551;28;20428;-86
2022/05/12 17:12:20;;;;;;;13.20;8.82;;;;;;;;;;10511064;28;20503;-86
2022/05/12 17:17:22;;;;;;;11.98;9.73;;;;;;;;;;10511703;28;20455;-86
2022/05/12 17:22:24;;;;;;;13.60;8.93;;;;;;;;;;10511268;28;20980;-86
2022/05/12 17:27:28;;;;;;;12.73;9.25;;;;;;;;;;10512924;28;20431;-85
2022/05/12 17:32:32;;;;;;;13.77;9.30;;;;;;;;;;10517281;28;20400;-87
2022/05/12 17:37:35;;;;;;;10.67;9.13;;;;;;;;;;10511715;28;20400;-85
2022/05/12 17:42:38;;;;;;;19.33;8.60;;;;;;;;;;10531932;28;20414;-87
2022/05/12 17:47:40;;;;;;;12.70;7.88;;;;;;;;;;10509164;28;20418;-85
2022/05/12 17:52:42;;;;;;;8.10;7.17;;;;;;;;;;10533070;28;20893;-85
2022/05/12 17:57:48;;;;;;;9.00;6.70;;;;;;;;;;10509889;28;20894;-86
2022/05/12 18:02:50;;;;;;;8.98;6.72;;;;;;;;;;10505867;28;20426;-86
2022/05/12 18:07:52;;;;;;;9.20;6.67;;;;;;;;;;10505116;28;20426;-86
2022/05/12 18:12:55;;;;;;;8.60;5.80;;;;;;;;;;10500127;28;20411;-86
2022/05/12 18:17:57;;;;;;;7.17;6.23;;;;;;;;;;10507879;28;20404;-85
2022/05/12 18:22:59;;;;;;;8.90;6.37;;;;;;;;;;10518935;28;20416;-86
2022/05/12 18:28:04;;;;;;;11.05;6.80;;;;;;;;;;10499985;28;20784;-85
2022/05/12 18:33:06;;;;;;;10.95;6.38;;;;;;;;;;10506946;28;20503;-85
2022/05/12 18:38:08;;;;;;;8.13;6.23;;;;;;;;;;10497915;28;20488;-86
2022/05/12 18:43:12;;;;;;;8.15;5.80;;;;;;;;;;10489066;28;20981;-86
2022/05/12 18:48:15;;;;;;;9.37;6.27;;;;;;;;;;10496510;28;20953;-87
2022/05/12 18:53:16;;;;;;;8.85;6.55;;;;;;;;;;10491715;28;20398;-87
2022/05/12 18:58:20;;;;;;;8.93;6.40;;;;;;;;;;10490221;28;20763;-87
2022/05/12 19:03:22;;;;;;;8.55;6.10;;;;;;;;;;10497618;28;20525;-86
2022/05/12 19:08:24;;;;;;;8.90;5.55;;;;;;;;;;10493780;28;20927;-86
2022/05/12 19:13:27;;;;;;;7.38;5.03;;;;;;;;;;10493376;28;20412;-87
2022/05/12 19:18:29;;;;;;;8.87;5.17;;;;;;;;;;10492367;28;20495;-86
2022/05/12 19:23:43;;;;;;;;;;;;;;;;;;;;;
2022/05/12 19:28:51;;;;;;;11.48;5.28;;;;;;;;;;10537705;28;20414;-82
2022/05/12 19:33:54;;;;;;;9.55;5.93;;;;;;;;;;10555369;28;20501;-83
2022/05/12 19:38:58;;;;;;;8.07;5.75;;;;;;;;;;10555211;28;20494;-83
2022/05/12 19:44:02;;;;;;;8.02;5.63;;;;;;;;;;10554862;28;20479;-83
2022/05/12 19:49:04;;;;;;;11.98;6.03;;;;;;;;;;10556466;28;20422;-84
2022/05/12 19:54:06;;;;;;;10.48;5.95;;;;;;;;;;10549818;28;20442;-83
2022/05/12 19:59:09;;;;;;;7.82;5.75;;;;;;;;;;10548637;28;20403;-83
2022/05/12 20:04:11;;;;;;;11.77;5.73;;;;;;;;;;10554185;28;20438;-83
2022/05/12 20:09:13;;;;;;;9.32;5.68;;;;;;;;;;10548205;28;20418;-83
2022/05/12 20:14:19;;;;;;;9.40;6.03;;;;;;;;;;10543843;28;20412;-83
2022/05/12 20:19:21;;;;;;;10.27;6.23;;;;;;;;;;10561309;28;20762;-84
2022/05/12 20:24:22;;;;;;;12.57;6.40;;;;;;;;;;10556258;28;20445;-82
2022/05/12 20:29:26;;;;;;;7.47;6.07;;;;;;;;;;10561483;28;20418;-83
2022/05/12 20:34:28;;;;;;;9.15;6.72;;;;;;;;;;10557023;28;20403;-83
2022/05/12 20:39:29;;;;;;;11.07;7.20;;;;;;;;;;10552815;28;20619;-85
2022/05/12 20:44:33;;;;;;;10.23;7.07;;;;;;;;;;10561199;28;20417;-84
2022/05/12 20:49:34;;;;;;;11.48;7.88;;;;;;;;;;10561299;28;20773;-83
2022/05/12 20:54:36;;;;;;;14.57;8.30;;;;;;;;;;10543741;28;20438;-84
2022/05/12 20:59:43;;;;;;;11.93;8.75;;;;;;;;;;10552444;28;20425;-83
2022/05/12 21:04:45;;;;;;;11.17;8.03;;;;;;;;;;10558750;28;20418;-85
2022/05/12 21:09:48;;;;;;;10.80;8.27;;;;;;;;;;10554265;28;20418;-82
2022/05/12 21:14:51;;;;;;;12.68;8.05;;;;;;;;;;10557718;28;20513;-84
2022/05/12 21:19:53;;;;;;;12.07;7.82;;;;;;;;;;10561811;28;20456;-84
2022/05/12 21:24:56;;;;;;;11.50;7.40;;;;;;;;;;10552259;28;20429;-83
2022/05/12 21:29:59;;;;;;;9.95;8.15;;;;;;;;;;10519288;28;20407;-84
2022/05/12 21:35:01;;;;;;;12.27;8.18;;;;;;;;;;10521123;28;20423;-83
2022/05/12 21:40:04;;;;;;;12.15;8.60;;;;;;;;;;10513230;28;20421;-83
2022/05/12 21:50:28;;;;;;;10.32;8.40;;;;;;;;;;10511491;28;20408;-83
2022/05/12 21:55:31;;;;;;;12.05;8.38;;;;;;;;;;10511319;28;20504;-83
2022/05/12 22:06:04;;;;;;;9.52;7.65;;;;;;;;;;10513368;28;20398;-82
2022/05/12 22:11:06;;;;;;;9.85;7.47;;;;;;;;;;10500656;28;20793;-84
2022/05/12 22:16:10;;;;;;;10.48;7.38;;;;;;;;;;10505574;28;20392;-84
2022/05/12 22:21:12;;;;;;;9.50;7.78;;;;;;;;;;10505675;28;20419;-82
2022/05/12 22:26:17;;;;;;;11.27;7.50;;;;;;;;;;10519296;28;20537;-83
2022/05/12 22:31:21;;;;;;;10.10;8.00;;;;;;;;;;10544517;28;20400;-83
2022/05/12 22:36:24;;;;;;;9.77;7.63;;;;;;;;;;10543945;28;20455;-84
2022/05/12 22:41:26;;;;;;;11.52;7.70;;;;;;;;;;10545170;28;20812;-83
2022/05/12 22:46:30;;;;;;;10.77;8.27;;;;;;;;;;10541543;28;20965;-82
2022/05/12 22:51:32;;;;;;;9.82;7.22;;;;;;;;;;10542460;28;20473;-83
2022/05/12 22:56:34;;;;;;;7.95;6.95;;;;;;;;;;10545335;28;20407;-82
2022/05/12 23:01:37;;;;;;;7.85;6.50;;;;;;;;;;10543638;28;20758;-84
2022/05/12 23:06:39;;;;;;;8.20;6.45;;;;;;;;;;10543906;28;20493;-83
2022/05/12 23:11:41;;;;;;;9.52;7.40;;;;;;;;;;10541801;28;20398;-82
2022/05/12 23:16:44;;;;;;;10.13;8.50;;;;;;;;;;10544438;28;20397;-83
2022/05/12 23:21:55;;;;;;;11.82;9.68;;;;;;;;;;10543055;28;20394;-82
2022/05/12 23:26:57;;;;;;;13.07;10.10;;;;;;;;;;10542790;28;20492;-84
2022/05/12 23:32:00;;;;;;;15.37;10.80;;;;;;;;;;10544572;28;20402;-82
2022/05/12 23:37:02;;;;;;;14.95;11.85;;;;;;;;;;10543174;28;20482;-83
2022/05/12 23:42:04;;;;;;;14.82;11.95;;;;;;;;;;10543503;28;20761;-83
2022/05/12 23:47:08;;;;;;;15.40;12.25;;;;;;;;;;10541395;28;20502;-83
2022/05/12 23:52:10;;;;;;;15.93;12.50;;;;;;;;;;10539190;28;20408;-84
2022/05/12 23:57:11;;;;;;;16.02;12.82;;;;;;;;;;10544996;28;20396;-84
